sensor_id;sensor_type;location;lat;lon;timestamp;P1;durP1;ratioP1;P2;durP2;ratioP2
54935;SDS011;40838;50.676;7.838;2022-10-15T00:00:00;8.00;;;3.25;;
54935;SDS011;40838;50.676;7.838;2022-10-15T00:02:26;10.43;;;3.58;;
54935;SDS011;40838;50.676;7.838;2022-10-15T00:04:56;5.72;;;2.95;;
54935;SDS011;40838;50.676;7.838;2022-10-15T00:07:22;1.80;;;1.70;;
54935;SDS011;40838;50.676;7.838;2022-10-15T00:09:49;2.63;;;2.13;;
54935;SDS011;40838;50.676;7.838;2022-10-15T00:12:22;7.13;;;2.80;;
54935;SDS011;40838;50.676;7.838;2022-10-15T00:14:48;7.10;;;2.38;;
54935;SDS011;40838;50.676;7.838;2022-10-15T00:17:15;5.50;;;2.47;;
54935;SDS011;40838;50.676;7.838;2022-10-15T00:19:41;5.45;;;2.38;;
54935;SDS011;40838;50.676;7.838;2022-10-15T00:22:09;7.93;;;2.85;;
54935;SDS011;40838;50.676;7.838;2022-10-15T00:24:36;7.38;;;2.72;;
54935;SDS011;40838;50.676;7.838;2022-10-15T00:27:02;5.35;;;3.40;;
54935;SDS011;40838;50.676;7.838;2022-10-15T00:29:29;6.32;;;3.63;;
54935;SDS011;40838;50.676;7.838;2022-10-15T00:31:56;4.72;;;3.50;;
54935;SDS011;40838;50.676;7.838;2022-10-15T00:34:22;7.25;;;3.85;;
54935;SDS011;40838;50.676;7.838;2022-10-15T00:36:49;5.20;;;3.35;;
54935;SDS011;40838;50.676;7.838;2022-10-15T00:39:17;6.70;;;4.20;;
54935;SDS011;40838;50.676;7.838;2022-10-15T00:41:46;4.85;;;3.47;;
54935;SDS011;40838;50.676;7.838;2022-10-15T00:47:00;4.00;;;3.60;;
54935;SDS011;40838;50.676;7.838;2022-10-15T00:49:29;6.18;;;4.13;;
54935;SDS011;40838;50.676;7.838;2022-10-15T00:52:11;6.10;;;4.75;;
54935;SDS011;40838;50.676;7.838;2022-10-15T00:54:41;11.25;;;4.65;;
54935;SDS011;40838;50.676;7.838;2022-10-15T00:57:09;5.32;;;4.40;;
54935;SDS011;40838;50.676;7.838;2022-10-15T00:59:37;5.47;;;4.68;;
54935;SDS011;40838;50.676;7.838;2022-10-15T01:02:04;6.25;;;5.25;;
54935;SDS011;40838;50.676;7.838;2022-10-15T01:04:32;6.00;;;4.40;;
54935;SDS011;40838;50.676;7.838;2022-10-15T01:07:00;5.28;;;4.60;;
54935;SDS011;40838;50.676;7.838;2022-10-15T01:09:28;5.30;;;4.70;;
54935;SDS011;40838;50.676;7.838;2022-10-15T01:11:56;6.95;;;4.53;;
54935;SDS011;40838;50.676;7.838;2022-10-15T01:14:26;9.70;;;5.50;;
54935;SDS011;40838;50.676;7.838;2022-10-15T01:16:54;6.10;;;4.80;;
54935;SDS011;40838;50.676;7.838;2022-10-15T01:19:29;8.82;;;4.32;;
54935;SDS011;40838;50.676;7.838;2022-10-15T01:21:58;6.15;;;4.13;;
54935;SDS011;40838;50.676;7.838;2022-10-15T01:24:41;6.95;;;4.65;;
54935;SDS011;40838;50.676;7.838;2022-10-15T01:27:26;8.20;;;4.18;;
54935;SDS011;40838;50.676;7.838;2022-10-15T01:30:00;6.35;;;4.85;;
54935;SDS011;40838;50.676;7.838;2022-10-15T01:32:31;6.10;;;4.45;;
54935;SDS011;40838;50.676;7.838;2022-10-15T01:35:04;7.43;;;4.40;;
54935;SDS011;40838;50.676;7.838;2022-10-15T01:37:35;6.15;;;5.05;;
54935;SDS011;40838;50.676;7.838;2022-10-15T01:40:04;6.38;;;4.68;;
54935;SDS011;40838;50.676;7.838;2022-10-15T01:42:38;7.30;;;5.20;;
54935;SDS011;40838;50.676;7.838;2022-10-15T01:45:07;10.32;;;5.55;;
54935;SDS011;40838;50.676;7.838;2022-10-15T01:47:57;12.88;;;6.50;;
54935;SDS011;40838;50.676;7.838;2022-10-15T01:50:25;6.38;;;5.68;;
54935;SDS011;40838;50.676;7.838;2022-10-15T01:52:53;8.05;;;5.53;;
54935;SDS011;40838;50.676;7.838;2022-10-15T01:55:22;7.25;;;5.18;;
54935;SDS011;40838;50.676;7.838;2022-10-15T01:57:50;8.27;;;5.90;;
54935;SDS011;40838;50.676;7.838;2022-10-15T02:00:18;11.80;;;5.85;;
54935;SDS011;40838;50.676;7.838;2022-10-15T02:02:44;9.13;;;5.90;;
54935;SDS011;40838;50.676;7.838;2022-10-15T02:05:13;7.65;;;6.10;;
54935;SDS011;40838;50.676;7.838;2022-10-15T02:07:43;9.95;;;6.10;;
54935;SDS011;40838;50.676;7.838;2022-10-15T02:10:13;7.93;;;5.72;;
54935;SDS011;40838;50.676;7.838;2022-10-15T02:13:00;11.48;;;6.60;;
54935;SDS011;40838;50.676;7.838;2022-10-15T02:15:33;8.10;;;6.72;;
54935;SDS011;40838;50.676;7.838;2022-10-15T02:18:03;9.88;;;6.43;;
54935;SDS011;40838;50.676;7.838;2022-10-15T02:20:33;7.53;;;5.90;;
54935;SDS011;40838;50.676;7.838;2022-10-15T02:23:03;8.90;;;6.57;;
54935;SDS011;40838;50.676;7.838;2022-10-15T02:25:33;8.85;;;5.90;;
54935;SDS011;40838;50.676;7.838;2022-10-15T02:28:01;8.15;;;6.50;;
54935;SDS011;40838;50.676;7.838;2022-10-15T02:30:29;10.45;;;6.78;;
54935;SDS011;40838;50.676;7.838;2022-10-15T02:32:57;9.50;;;7.03;;
54935;SDS011;40838;50.676;7.838;2022-10-15T02:35:24;12.05;;;6.63;;
54935;SDS011;40838;50.676;7.838;2022-10-15T02:37:53;10.45;;;6.85;;
54935;SDS011;40838;50.676;7.838;2022-10-15T02:40:20;9.40;;;6.25;;
54935;SDS011;40838;50.676;7.838;2022-10-15T02:42:48;16.73;;;6.93;;
54935;SDS011;40838;50.676;7.838;2022-10-15T02:45:15;9.60;;;6.38;;
54935;SDS011;40838;50.676;7.838;2022-10-15T02:47:44;8.80;;;6.72;;
54935;SDS011;40838;50.676;7.838;2022-10-15T02:50:10;7.95;;;5.15;;
54935;SDS011;40838;50.676;7.838;2022-10-15T02:52:38;9.65;;;6.90;;
54935;SDS011;40838;50.676;7.838;2022-10-15T02:55:07;10.50;;;6.90;;
54935;SDS011;40838;50.676;7.838;2022-10-15T02:57:34;11.23;;;7.10;;
54935;SDS011;40838;50.676;7.838;2022-10-15T03:00:02;10.93;;;6.38;;
54935;SDS011;40838;50.676;7.838;2022-10-15T03:02:29;11.00;;;6.38;;
54935;SDS011;40838;50.676;7.838;2022-10-15T03:04:56;7.88;;;6.30;;
54935;SDS011;40838;50.676;7.838;2022-10-15T03:07:23;10.93;;;7.20;;
54935;SDS011;40838;50.676;7.838;2022-10-15T03:09:50;9.50;;;6.18;;
54935;SDS011;40838;50.676;7.838;2022-10-15T03:12:19;9.98;;;6.75;;
54935;SDS011;40838;50.676;7.838;2022-10-15T03:14:49;13.43;;;7.60;;
54935;SDS011;40838;50.676;7.838;2022-10-15T03:17:17;10.60;;;7.90;;
54935;SDS011;40838;50.676;7.838;2022-10-15T03:19:47;14.82;;;8.50;;
54935;SDS011;40838;50.676;7.838;2022-10-15T03:22:14;13.02;;;8.88;;
54935;SDS011;40838;50.676;7.838;2022-10-15T03:24:50;15.02;;;9.23;;
54935;SDS011;40838;50.676;7.838;2022-10-15T03:27:23;13.13;;;8.93;;
54935;SDS011;40838;50.676;7.838;2022-10-15T03:29:52;13.43;;;9.38;;
54935;SDS011;40838;50.676;7.838;2022-10-15T03:32:20;11.02;;;8.50;;
54935;SDS011;40838;50.676;7.838;2022-10-15T03:34:47;15.68;;;8.88;;
54935;SDS011;40838;50.676;7.838;2022-10-15T03:37:16;11.82;;;8.63;;
54935;SDS011;40838;50.676;7.838;2022-10-15T03:39:45;13.55;;;8.77;;
54935;SDS011;40838;50.676;7.838;2022-10-15T03:42:14;17.80;;;9.07;;
54935;SDS011;40838;50.676;7.838;2022-10-15T03:44:44;10.10;;;7.63;;
54935;SDS011;40838;50.676;7.838;2022-10-15T03:47:15;13.48;;;8.35;;
54935;SDS011;40838;50.676;7.838;2022-10-15T03:49:44;14.82;;;8.50;;
54935;SDS011;40838;50.676;7.838;2022-10-15T03:52:11;13.73;;;8.75;;
54935;SDS011;40838;50.676;7.838;2022-10-15T03:54:39;13.48;;;8.05;;
54935;SDS011;40838;50.676;7.838;2022-10-15T03:57:07;15.95;;;9.02;;
54935;SDS011;40838;50.676;7.838;2022-10-15T03:59:38;18.60;;;8.50;;
54935;SDS011;40838;50.676;7.838;2022-10-15T04:02:06;12.52;;;7.55;;
54935;SDS011;40838;50.676;7.838;2022-10-15T04:04:33;13.63;;;8.32;;
54935;SDS011;40838;50.676;7.838;2022-10-15T04:07:01;14.27;;;8.63;;
54935;SDS011;40838;50.676;7.838;2022-10-15T04:09:32;15.60;;;8.20;;
54935;SDS011;40838;50.676;7.838;2022-10-15T04:12:22;15.15;;;9.38;;
54935;SDS011;40838;50.676;7.838;2022-10-15T04:14:51;12.10;;;8.50;;
54935;SDS011;40838;50.676;7.838;2022-10-15T04:17:20;16.63;;;9.93;;
54935;SDS011;40838;50.676;7.838;2022-10-15T04:19:47;13.55;;;8.73;;
54935;SDS011;40838;50.676;7.838;2022-10-15T04:22:19;12.23;;;8.70;;
54935;SDS011;40838;50.676;7.838;2022-10-15T04:24:50;13.13;;;8.45;;
54935;SDS011;40838;50.676;7.838;2022-10-15T04:27:28;13.23;;;8.82;;
54935;SDS011;40838;50.676;7.838;2022-10-15T04:30:08;14.48;;;8.73;;
54935;SDS011;40838;50.676;7.838;2022-10-15T04:32:44;16.27;;;8.88;;
54935;SDS011;40838;50.676;7.838;2022-10-15T04:35:12;12.60;;;8.90;;
54935;SDS011;40838;50.676;7.838;2022-10-15T04:37:50;14.43;;;9.00;;
54935;SDS011;40838;50.676;7.838;2022-10-15T04:40:21;14.52;;;9.18;;
54935;SDS011;40838;50.676;7.838;2022-10-15T04:42:49;16.27;;;9.45;;
54935;SDS011;40838;50.676;7.838;2022-10-15T04:45:17;19.73;;;9.52;;
54935;SDS011;40838;50.676;7.838;2022-10-15T04:47:57;12.88;;;8.38;;
54935;SDS011;40838;50.676;7.838;2022-10-15T04:50:25;12.70;;;8.60;;
54935;SDS011;40838;50.676;7.838;2022-10-15T04:53:15;15.90;;;9.65;;
54935;SDS011;40838;50.676;7.838;2022-10-15T04:55:45;17.15;;;9.90;;
54935;SDS011;40838;50.676;7.838;2022-10-15T04:58:14;20.77;;;10.30;;
54935;SDS011;40838;50.676;7.838;2022-10-15T05:00:46;16.60;;;9.27;;
54935;SDS011;40838;50.676;7.838;2022-10-15T05:03:28;16.88;;;10.50;;
54935;SDS011;40838;50.676;7.838;2022-10-15T05:06:10;18.95;;;10.57;;
54935;SDS011;40838;50.676;7.838;2022-10-15T05:08:40;18.80;;;10.05;;
54935;SDS011;40838;50.676;7.838;2022-10-15T05:11:16;16.92;;;9.63;;
54935;SDS011;40838;50.676;7.838;2022-10-15T05:13:43;16.85;;;9.50;;
54935;SDS011;40838;50.676;7.838;2022-10-15T05:16:10;18.83;;;9.13;;
54935;SDS011;40838;50.676;7.838;2022-10-15T05:18:40;18.30;;;9.25;;
54935;SDS011;40838;50.676;7.838;2022-10-15T05:21:08;19.02;;;9.77;;
54935;SDS011;40838;50.676;7.838;2022-10-15T05:23:38;15.25;;;8.90;;
54935;SDS011;40838;50.676;7.838;2022-10-15T05:26:14;12.65;;;8.50;;
54935;SDS011;40838;50.676;7.838;2022-10-15T05:28:42;16.40;;;9.45;;
54935;SDS011;40838;50.676;7.838;2022-10-15T05:31:14;14.52;;;8.88;;
54935;SDS011;40838;50.676;7.838;2022-10-15T05:33:42;16.50;;;9.82;;
54935;SDS011;40838;50.676;7.838;2022-10-15T05:36:10;16.77;;;9.15;;
54935;SDS011;40838;50.676;7.838;2022-10-15T05:38:37;15.13;;;8.73;;
54935;SDS011;40838;50.676;7.838;2022-10-15T05:41:03;15.30;;;8.93;;
54935;SDS011;40838;50.676;7.838;2022-10-15T05:43:31;13.88;;;8.02;;
54935;SDS011;40838;50.676;7.838;2022-10-15T05:46:00;16.52;;;9.60;;
54935;SDS011;40838;50.676;7.838;2022-10-15T05:48:27;12.77;;;8.15;;
54935;SDS011;40838;50.676;7.838;2022-10-15T05:51:00;12.65;;;7.97;;
54935;SDS011;40838;50.676;7.838;2022-10-15T05:53:27;13.43;;;8.55;;
54935;SDS011;40838;50.676;7.838;2022-10-15T05:56:00;12.70;;;8.50;;
54935;SDS011;40838;50.676;7.838;2022-10-15T05:58:31;14.02;;;8.60;;
54935;SDS011;40838;50.676;7.838;2022-10-15T06:00:59;11.30;;;7.53;;
54935;SDS011;40838;50.676;7.838;2022-10-15T06:03:27;11.80;;;7.68;;
54935;SDS011;40838;50.676;7.838;2022-10-15T06:05:53;12.32;;;7.60;;
54935;SDS011;40838;50.676;7.838;2022-10-15T06:08:22;13.20;;;7.95;;
54935;SDS011;40838;50.676;7.838;2022-10-15T06:10:48;11.70;;;7.47;;
54935;SDS011;40838;50.676;7.838;2022-10-15T06:13:22;9.77;;;7.32;;
54935;SDS011;40838;50.676;7.838;2022-10-15T06:15:49;11.13;;;7.20;;
54935;SDS011;40838;50.676;7.838;2022-10-15T06:18:16;8.98;;;6.68;;
54935;SDS011;40838;50.676;7.838;2022-10-15T06:20:42;11.30;;;6.43;;
54935;SDS011;40838;50.676;7.838;2022-10-15T06:23:10;8.93;;;6.45;;
54935;SDS011;40838;50.676;7.838;2022-10-15T06:25:38;11.52;;;6.57;;
54935;SDS011;40838;50.676;7.838;2022-10-15T06:28:05;13.10;;;7.45;;
54935;SDS011;40838;50.676;7.838;2022-10-15T06:30:39;17.80;;;8.02;;
54935;SDS011;40838;50.676;7.838;2022-10-15T06:33:06;13.65;;;7.28;;
54935;SDS011;40838;50.676;7.838;2022-10-15T06:35:33;11.88;;;7.95;;
54935;SDS011;40838;50.676;7.838;2022-10-15T06:38:00;14.52;;;6.93;;
54935;SDS011;40838;50.676;7.838;2022-10-15T06:40:26;14.93;;;7.75;;
54935;SDS011;40838;50.676;7.838;2022-10-15T06:42:54;13.23;;;7.60;;
54935;SDS011;40838;50.676;7.838;2022-10-15T06:45:24;11.65;;;7.68;;
54935;SDS011;40838;50.676;7.838;2022-10-15T06:47:51;9.55;;;6.90;;
54935;SDS011;40838;50.676;7.838;2022-10-15T06:50:17;14.88;;;7.28;;
54935;SDS011;40838;50.676;7.838;2022-10-15T06:52:44;9.02;;;6.18;;
54935;SDS011;40838;50.676;7.838;2022-10-15T06:55:10;13.07;;;6.22;;
54935;SDS011;40838;50.676;7.838;2022-10-15T06:57:37;14.35;;;5.70;;
54935;SDS011;40838;50.676;7.838;2022-10-15T07:00:12;7.32;;;5.50;;
54935;SDS011;40838;50.676;7.838;2022-10-15T07:02:39;7.50;;;5.50;;
54935;SDS011;40838;50.676;7.838;2022-10-15T07:05:08;8.10;;;5.72;;
54935;SDS011;40838;50.676;7.838;2022-10-15T07:07:34;6.15;;;5.00;;
54935;SDS011;40838;50.676;7.838;2022-10-15T07:10:01;8.07;;;5.03;;
54935;SDS011;40838;50.676;7.838;2022-10-15T07:12:27;6.95;;;4.28;;
54935;SDS011;40838;50.676;7.838;2022-10-15T07:14:54;9.15;;;5.70;;
54935;SDS011;40838;50.676;7.838;2022-10-15T07:17:22;11.13;;;5.60;;
54935;SDS011;40838;50.676;7.838;2022-10-15T07:19:51;11.02;;;5.70;;
54935;SDS011;40838;50.676;7.838;2022-10-15T07:22:17;7.90;;;4.35;;
54935;SDS011;40838;50.676;7.838;2022-10-15T07:24:44;6.47;;;3.78;;
54935;SDS011;40838;50.676;7.838;2022-10-15T07:27:11;4.65;;;3.65;;
54935;SDS011;40838;50.676;7.838;2022-10-15T07:29:37;7.45;;;4.15;;
54935;SDS011;40838;50.676;7.838;2022-10-15T07:32:04;3.45;;;3.08;;
54935;SDS011;40838;50.676;7.838;2022-10-15T07:34:34;6.72;;;3.08;;
54935;SDS011;40838;50.676;7.838;2022-10-15T07:37:07;7.30;;;3.00;;
54935;SDS011;40838;50.676;7.838;2022-10-15T07:39:35;5.53;;;3.10;;
54935;SDS011;40838;50.676;7.838;2022-10-15T07:42:05;3.13;;;2.80;;
54935;SDS011;40838;50.676;7.838;2022-10-15T07:44:35;4.43;;;3.10;;
54935;SDS011;40838;50.676;7.838;2022-10-15T07:47:08;4.55;;;3.47;;
54935;SDS011;40838;50.676;7.838;2022-10-15T07:49:37;4.03;;;3.00;;
54935;SDS011;40838;50.676;7.838;2022-10-15T07:52:03;3.88;;;3.30;;
54935;SDS011;40838;50.676;7.838;2022-10-15T07:54:32;5.80;;;3.90;;
54935;SDS011;40838;50.676;7.838;2022-10-15T07:57:00;5.38;;;4.13;;
54935;SDS011;40838;50.676;7.838;2022-10-15T07:59:27;5.97;;;3.70;;
54935;SDS011;40838;50.676;7.838;2022-10-15T08:01:53;4.50;;;3.85;;
54935;SDS011;40838;50.676;7.838;2022-10-15T08:04:20;4.85;;;3.05;;
54935;SDS011;40838;50.676;7.838;2022-10-15T08:06:49;3.85;;;3.17;;
54935;SDS011;40838;50.676;7.838;2022-10-15T08:09:17;3.83;;;3.03;;
54935;SDS011;40838;50.676;7.838;2022-10-15T08:11:43;6.15;;;3.20;;
54935;SDS011;40838;50.676;7.838;2022-10-15T08:14:16;3.53;;;2.90;;
54935;SDS011;40838;50.676;7.838;2022-10-15T08:16:43;3.97;;;3.00;;
54935;SDS011;40838;50.676;7.838;2022-10-15T08:19:09;5.32;;;2.75;;
54935;SDS011;40838;50.676;7.838;2022-10-15T08:21:41;7.32;;;2.63;;
54935;SDS011;40838;50.676;7.838;2022-10-15T08:24:10;2.28;;;2.08;;
54935;SDS011;40838;50.676;7.838;2022-10-15T08:26:37;2.92;;;2.22;;
54935;SDS011;40838;50.676;7.838;2022-10-15T08:29:04;1.92;;;1.83;;
54935;SDS011;40838;50.676;7.838;2022-10-15T08:31:36;1.92;;;1.77;;
54935;SDS011;40838;50.676;7.838;2022-10-15T08:34:03;2.65;;;2.13;;
54935;SDS011;40838;50.676;7.838;2022-10-15T08:36:30;2.67;;;2.40;;
54935;SDS011;40838;50.676;7.838;2022-10-15T08:38:56;1.83;;;1.70;;
54935;SDS011;40838;50.676;7.838;2022-10-15T08:41:31;1.70;;;1.60;;
54935;SDS011;40838;50.676;7.838;2022-10-15T08:43:59;1.88;;;1.77;;
54935;SDS011;40838;50.676;7.838;2022-10-15T08:46:28;1.50;;;1.40;;
54935;SDS011;40838;50.676;7.838;2022-10-15T08:48:58;2.83;;;1.50;;
54935;SDS011;40838;50.676;7.838;2022-10-15T08:51:27;3.17;;;1.50;;
54935;SDS011;40838;50.676;7.838;2022-10-15T08:53:56;3.58;;;1.75;;
54935;SDS011;40838;50.676;7.838;2022-10-15T08:56:29;6.82;;;1.50;;
54935;SDS011;40838;50.676;7.838;2022-10-15T08:59:00;1.55;;;1.45;;
54935;SDS011;40838;50.676;7.838;2022-10-15T09:01:31;1.52;;;1.42;;
54935;SDS011;40838;50.676;7.838;2022-10-15T09:04:05;4.03;;;1.30;;
54935;SDS011;40838;50.676;7.838;2022-10-15T09:06:33;1.13;;;1.00;;
54935;SDS011;40838;50.676;7.838;2022-10-15T09:09:04;2.05;;;1.00;;
54935;SDS011;40838;50.676;7.838;2022-10-15T09:11:36;1.10;;;1.00;;
54935;SDS011;40838;50.676;7.838;2022-10-15T09:14:07;1.83;;;1.23;;
54935;SDS011;40838;50.676;7.838;2022-10-15T09:16:37;5.38;;;0.90;;
54935;SDS011;40838;50.676;7.838;2022-10-15T09:19:09;3.40;;;0.90;;
54935;SDS011;40838;50.676;7.838;2022-10-15T09:21:38;1.30;;;1.20;;
54935;SDS011;40838;50.676;7.838;2022-10-15T09:24:08;4.85;;;0.90;;
54935;SDS011;40838;50.676;7.838;2022-10-15T09:26:40;1.83;;;1.00;;
54935;SDS011;40838;50.676;7.838;2022-10-15T09:29:10;4.80;;;1.20;;
54935;SDS011;40838;50.676;7.838;2022-10-15T09:31:41;1.25;;;1.15;;
54935;SDS011;40838;50.676;7.838;2022-10-15T09:34:10;1.13;;;0.85;;
54935;SDS011;40838;50.676;7.838;2022-10-15T09:36:40;0.90;;;0.70;;
54935;SDS011;40838;50.676;7.838;2022-10-15T09:39:16;0.68;;;0.68;;
54935;SDS011;40838;50.676;7.838;2022-10-15T09:41:51;1.48;;;0.85;;
54935;SDS011;40838;50.676;7.838;2022-10-15T09:44:23;0.60;;;0.60;;
54935;SDS011;40838;50.676;7.838;2022-10-15T09:46:50;0.60;;;0.60;;
54935;SDS011;40838;50.676;7.838;2022-10-15T09:49:19;0.77;;;0.70;;
54935;SDS011;40838;50.676;7.838;2022-10-15T09:51:54;1.23;;;0.65;;
54935;SDS011;40838;50.676;7.838;2022-10-15T09:54:24;1.15;;;0.55;;
54935;SDS011;40838;50.676;7.838;2022-10-15T09:56:55;1.75;;;0.30;;
54935;SDS011;40838;50.676;7.838;2022-10-15T09:59:22;1.85;;;0.95;;
54935;SDS011;40838;50.676;7.838;2022-10-15T10:01:55;1.02;;;1.00;;
54935;SDS011;40838;50.676;7.838;2022-10-15T10:04:23;3.20;;;0.93;;
54935;SDS011;40838;50.676;7.838;2022-10-15T10:06:52;3.03;;;0.82;;
54935;SDS011;40838;50.676;7.838;2022-10-15T10:09:22;6.47;;;1.08;;
54935;SDS011;40838;50.676;7.838;2022-10-15T10:11:49;1.85;;;1.02;;
54935;SDS011;40838;50.676;7.838;2022-10-15T10:14:23;2.58;;;0.95;;
54935;SDS011;40838;50.676;7.838;2022-10-15T10:17:09;0.70;;;0.70;;
54935;SDS011;40838;50.676;7.838;2022-10-15T10:19:38;3.28;;;0.90;;
54935;SDS011;40838;50.676;7.838;2022-10-15T10:22:16;1.00;;;0.32;;
54935;SDS011;40838;50.676;7.838;2022-10-15T10:24:45;0.47;;;0.47;;
54935;SDS011;40838;50.676;7.838;2022-10-15T10:27:17;0.40;;;0.40;;
54935;SDS011;40838;50.676;7.838;2022-10-15T10:29:47;0.60;;;0.50;;
54935;SDS011;40838;50.676;7.838;2022-10-15T10:32:16;0.93;;;0.68;;
54935;SDS011;40838;50.676;7.838;2022-10-15T10:34:44;0.50;;;0.43;;
54935;SDS011;40838;50.676;7.838;2022-10-15T10:37:12;3.10;;;0.47;;
54935;SDS011;40838;50.676;7.838;2022-10-15T10:39:39;0.50;;;0.47;;
54935;SDS011;40838;50.676;7.838;2022-10-15T10:42:22;0.93;;;0.60;;
54935;SDS011;40838;50.676;7.838;2022-10-15T10:44:50;1.17;;;0.50;;
54935;SDS011;40838;50.676;7.838;2022-10-15T10:47:19;1.25;;;0.80;;
54935;SDS011;40838;50.676;7.838;2022-10-15T10:49:47;2.15;;;0.60;;
54935;SDS011;40838;50.676;7.838;2022-10-15T10:52:21;2.15;;;0.60;;
54935;SDS011;40838;50.676;7.838;2022-10-15T10:54:50;0.52;;;0.52;;
54935;SDS011;40838;50.676;7.838;2022-10-15T10:57:19;3.55;;;0.88;;
54935;SDS011;40838;50.676;7.838;2022-10-15T10:59:54;0.90;;;0.63;;
54935;SDS011;40838;50.676;7.838;2022-10-15T11:02:21;0.68;;;0.60;;
54935;SDS011;40838;50.676;7.838;2022-10-15T11:04:47;5.38;;;1.27;;
54935;SDS011;40838;50.676;7.838;2022-10-15T11:07:15;1.63;;;0.60;;
54935;SDS011;40838;50.676;7.838;2022-10-15T11:09:46;0.40;;;0.40;;
54935;SDS011;40838;50.676;7.838;2022-10-15T11:12:23;2.05;;;0.60;;
54935;SDS011;40838;50.676;7.838;2022-10-15T11:14:56;0.40;;;0.40;;
54935;SDS011;40838;50.676;7.838;2022-10-15T11:17:27;4.70;;;0.95;;
54935;SDS011;40838;50.676;7.838;2022-10-15T11:19:57;1.65;;;0.80;;
54935;SDS011;40838;50.676;7.838;2022-10-15T11:22:31;0.63;;;0.30;;
54935;SDS011;40838;50.676;7.838;2022-10-15T11:25:01;1.27;;;0.50;;
54935;SDS011;40838;50.676;7.838;2022-10-15T11:27:40;2.55;;;0.55;;
54935;SDS011;40838;50.676;7.838;2022-10-15T11:30:12;2.45;;;0.90;;
54935;SDS011;40838;50.676;7.838;2022-10-15T11:32:46;0.77;;;0.50;;
54935;SDS011;40838;50.676;7.838;2022-10-15T11:35:33;0.82;;;0.70;;
54935;SDS011;40838;50.676;7.838;2022-10-15T11:38:04;1.85;;;0.63;;
54935;SDS011;40838;50.676;7.838;2022-10-15T11:40:36;2.05;;;0.30;;
54935;SDS011;40838;50.676;7.838;2022-10-15T11:43:08;0.95;;;0.30;;
54935;SDS011;40838;50.676;7.838;2022-10-15T11:45:43;1.20;;;0.60;;
54935;SDS011;40838;50.676;7.838;2022-10-15T11:48:17;0.38;;;0.30;;
54935;SDS011;40838;50.676;7.838;2022-10-15T11:50:48;3.78;;;0.75;;
54935;SDS011;40838;50.676;7.838;2022-10-15T11:53:22;0.95;;;0.50;;
54935;SDS011;40838;50.676;7.838;2022-10-15T11:55:53;1.30;;;0.47;;
54935;SDS011;40838;50.676;7.838;2022-10-15T11:58:31;1.25;;;0.60;;
54935;SDS011;40838;50.676;7.838;2022-10-15T12:01:01;1.42;;;0.50;;
54935;SDS011;40838;50.676;7.838;2022-10-15T12:03:32;4.22;;;0.65;;
54935;SDS011;40838;50.676;7.838;2022-10-15T12:06:04;0.30;;;0.30;;
54935;SDS011;40838;50.676;7.838;2022-10-15T12:08:33;5.50;;;0.80;;
54935;SDS011;40838;50.676;7.838;2022-10-15T12:11:06;2.55;;;0.40;;
54935;SDS011;40838;50.676;7.838;2022-10-15T12:13:37;1.13;;;0.50;;
54935;SDS011;40838;50.676;7.838;2022-10-15T12:16:10;0.85;;;0.43;;
54935;SDS011;40838;50.676;7.838;2022-10-15T12:18:38;2.58;;;0.40;;
54935;SDS011;40838;50.676;7.838;2022-10-15T12:23:48;0.57;;;0.52;;
54935;SDS011;40838;50.676;7.838;2022-10-15T12:26:25;0.85;;;0.40;;
54935;SDS011;40838;50.676;7.838;2022-10-15T12:28:54;1.30;;;0.50;;
54935;SDS011;40838;50.676;7.838;2022-10-15T12:31:23;2.90;;;0.82;;
54935;SDS011;40838;50.676;7.838;2022-10-15T12:33:50;1.13;;;1.02;;
54935;SDS011;40838;50.676;7.838;2022-10-15T12:36:20;4.95;;;1.10;;
54935;SDS011;40838;50.676;7.838;2022-10-15T12:38:54;2.47;;;1.10;;
54935;SDS011;40838;50.676;7.838;2022-10-15T12:41:21;1.92;;;0.60;;
54935;SDS011;40838;50.676;7.838;2022-10-15T12:44:03;0.70;;;0.50;;
54935;SDS011;40838;50.676;7.838;2022-10-15T12:46:35;1.58;;;0.70;;
54935;SDS011;40838;50.676;7.838;2022-10-15T12:49:09;1.88;;;0.50;;
54935;SDS011;40838;50.676;7.838;2022-10-15T12:51:57;1.42;;;1.13;;
54935;SDS011;40838;50.676;7.838;2022-10-15T12:54:35;1.55;;;0.80;;
54935;SDS011;40838;50.676;7.838;2022-10-15T12:57:03;4.00;;;1.13;;
54935;SDS011;40838;50.676;7.838;2022-10-15T12:59:53;0.75;;;0.75;;
54935;SDS011;40838;50.676;7.838;2022-10-15T13:02:31;1.80;;;0.80;;
54935;SDS011;40838;50.676;7.838;2022-10-15T13:04:58;0.98;;;0.60;;
54935;SDS011;40838;50.676;7.838;2022-10-15T13:07:26;0.68;;;0.57;;
54935;SDS011;40838;50.676;7.838;2022-10-15T13:09:53;1.38;;;0.70;;
54935;SDS011;40838;50.676;7.838;2022-10-15T13:12:24;0.90;;;0.50;;
54935;SDS011;40838;50.676;7.838;2022-10-15T13:14:54;2.63;;;0.60;;
54935;SDS011;40838;50.676;7.838;2022-10-15T13:17:24;1.55;;;0.60;;
54935;SDS011;40838;50.676;7.838;2022-10-15T13:19:54;1.77;;;0.70;;
54935;SDS011;40838;50.676;7.838;2022-10-15T13:22:23;0.45;;;0.45;;
54935;SDS011;40838;50.676;7.838;2022-10-15T13:24:52;2.80;;;0.90;;
54935;SDS011;40838;50.676;7.838;2022-10-15T13:27:21;1.38;;;1.20;;
54935;SDS011;40838;50.676;7.838;2022-10-15T13:29:53;1.73;;;1.40;;
54935;SDS011;40838;50.676;7.838;2022-10-15T13:32:21;4.22;;;0.82;;
54935;SDS011;40838;50.676;7.838;2022-10-15T13:34:48;4.22;;;0.60;;
54935;SDS011;40838;50.676;7.838;2022-10-15T13:37:16;0.57;;;0.57;;
54935;SDS011;40838;50.676;7.838;2022-10-15T13:39:43;2.08;;;0.70;;
54935;SDS011;40838;50.676;7.838;2022-10-15T13:42:14;3.88;;;0.80;;
54935;SDS011;40838;50.676;7.838;2022-10-15T13:44:41;1.73;;;0.38;;
54935;SDS011;40838;50.676;7.838;2022-10-15T13:47:24;1.80;;;0.57;;
54935;SDS011;40838;50.676;7.838;2022-10-15T13:52:36;0.75;;;0.57;;
54935;SDS011;40838;50.676;7.838;2022-10-15T13:55:09;0.65;;;0.60;;
54935;SDS011;40838;50.676;7.838;2022-10-15T13:57:37;6.85;;;2.70;;
54935;SDS011;40838;50.676;7.838;2022-10-15T14:00:21;0.93;;;0.47;;
54935;SDS011;40838;50.676;7.838;2022-10-15T14:05:30;2.28;;;0.50;;
54935;SDS011;40838;50.676;7.838;2022-10-15T14:07:57;0.40;;;0.40;;
54935;SDS011;40838;50.676;7.838;2022-10-15T14:10:24;2.45;;;0.65;;
54935;SDS011;40838;50.676;7.838;2022-10-15T14:12:52;3.83;;;2.28;;
54935;SDS011;40838;50.676;7.838;2022-10-15T14:18:04;3.53;;;1.00;;
54935;SDS011;40838;50.676;7.838;2022-10-15T14:20:31;1.75;;;1.63;;
54935;SDS011;40838;50.676;7.838;2022-10-15T14:22:58;2.17;;;1.42;;
54935;SDS011;40838;50.676;7.838;2022-10-15T14:25:25;0.40;;;0.40;;
54935;SDS011;40838;50.676;7.838;2022-10-15T14:27:55;0.95;;;0.50;;
54935;SDS011;40838;50.676;7.838;2022-10-15T14:30:23;0.73;;;0.35;;
54935;SDS011;40838;50.676;7.838;2022-10-15T14:32:52;1.40;;;1.10;;
54935;SDS011;40838;50.676;7.838;2022-10-15T14:35:22;1.73;;;1.55;;
54935;SDS011;40838;50.676;7.838;2022-10-15T14:37:57;1.88;;;0.95;;
54935;SDS011;40838;50.676;7.838;2022-10-15T14:40:25;0.80;;;0.40;;
54935;SDS011;40838;50.676;7.838;2022-10-15T14:43:03;0.55;;;0.20;;
54935;SDS011;40838;50.676;7.838;2022-10-15T14:45:32;0.73;;;0.52;;
54935;SDS011;40838;50.676;7.838;2022-10-15T14:48:07;3.33;;;0.93;;
54935;SDS011;40838;50.676;7.838;2022-10-15T14:50:36;1.27;;;0.30;;
54935;SDS011;40838;50.676;7.838;2022-10-15T14:53:07;4.72;;;1.75;;
54935;SDS011;40838;50.676;7.838;2022-10-15T14:55:37;1.02;;;0.80;;
54935;SDS011;40838;50.676;7.838;2022-10-15T14:58:10;1.38;;;0.52;;
54935;SDS011;40838;50.676;7.838;2022-10-15T15:00:38;0.60;;;0.32;;
54935;SDS011;40838;50.676;7.838;2022-10-15T15:03:10;1.98;;;0.75;;
54935;SDS011;40838;50.676;7.838;2022-10-15T15:05:54;1.30;;;1.20;;
54935;SDS011;40838;50.676;7.838;2022-10-15T15:08:22;1.90;;;1.27;;
54935;SDS011;40838;50.676;7.838;2022-10-15T15:10:49;1.67;;;0.47;;
54935;SDS011;40838;50.676;7.838;2022-10-15T15:13:19;1.35;;;0.52;;